createdAt,value
2023-03-02T00:00:59.205Z,101733.63
2023-03-02T00:03:28.417Z,101730.09
2023-03-02T00:05:57.930Z,101737.16
2023-03-02T00:08:26.786Z,101741.66
2023-03-02T00:10:56.612Z,101738.03
2023-03-02T00:13:25.215Z,101736.31
2023-03-02T00:15:53.314Z,101734.56
2023-03-02T00:18:21.464Z,101736.50
2023-03-02T00:20:49.631Z,101732.84
2023-03-02T00:23:17.863Z,101730.94
2023-03-02T00:25:45.952Z,101729.22
2023-03-02T00:28:15.482Z,101722.81
2023-03-02T00:30:43.533Z,101720.22
2023-03-02T00:33:11.697Z,101724.75
2023-03-02T00:35:40.099Z,101712.19
2023-03-02T00:38:08.618Z,101711.41
2023-03-02T00:40:36.981Z,101708.00
2023-03-02T00:43:05.326Z,101711.63
2023-03-02T00:45:34.800Z,101709.81
2023-03-02T00:48:02.766Z,101711.63
2023-03-02T00:50:31.050Z,101719.47
2023-03-02T00:52:59.120Z,101716.78
2023-03-02T00:55:27.194Z,101713.16
2023-03-02T00:57:56.089Z,101709.53
2023-03-02T01:00:31.003Z,101713.16
2023-03-02T01:03:05.346Z,101705.31
2023-03-02T01:05:37.065Z,101701.78
2023-03-02T01:08:05.356Z,101702.00
2023-03-02T01:10:33.433Z,101704.56
2023-03-02T01:13:01.793Z,101704.75
2023-03-02T01:15:29.857Z,101697.50
2023-03-02T01:17:58.093Z,101710.78
2023-03-02T01:20:27.821Z,101716.03
2023-03-02T01:22:56.297Z,101708.19
2023-03-02T01:25:24.603Z,101702.84
2023-03-02T01:27:52.730Z,101702.63
2023-03-02T01:30:21.200Z,101697.28
2023-03-02T01:32:49.500Z,101690.19
2023-03-02T01:35:17.767Z,101695.56
2023-03-02T01:37:47.441Z,101695.56
2023-03-02T01:40:16.009Z,101684.84
2023-03-02T01:42:47.883Z,101687.94
2023-03-02T01:45:36.726Z,101679.06
2023-03-02T01:48:05.283Z,101684.41
2023-03-02T01:50:33.395Z,101679.16
2023-03-02T01:53:04.677Z,101678.16
2023-03-02T01:55:34.982Z,101678.28
2023-03-02T01:58:04.483Z,101670.44
2023-03-02T02:00:34.665Z,101671.28
2023-03-02T02:03:10.179Z,101667.03
2023-03-02T02:05:39.782Z,101670.66
2023-03-02T02:08:09.862Z,101663.66
2023-03-02T02:10:38.156Z,101662.72
2023-03-02T02:13:07.366Z,101666.34
2023-03-02T02:15:35.660Z,101658.50
2023-03-02T02:18:05.170Z,101664.44
2023-03-02T02:20:37.075Z,101655.63
2023-03-02T02:23:16.234Z,101661.94
2023-03-02T02:25:47.661Z,101663.56
2023-03-02T02:28:19.981Z,101653.72
2023-03-02T02:30:48.985Z,101650.06
2023-03-02T02:33:18.744Z,101641.28
2023-03-02T02:35:47.835Z,101647.28
2023-03-02T02:38:20.196Z,101641.09
2023-03-02T02:40:50.711Z,101637.47
2023-03-02T02:43:23.236Z,101641.09
2023-03-02T02:45:53.456Z,101632.31
2023-03-02T02:48:23.276Z,101631.22
2023-03-02T02:51:00.311Z,101631.13
2023-03-02T02:53:30.259Z,101627.50
2023-03-02T02:55:59.426Z,101625.88
2023-03-02T02:58:33.193Z,101613.47
2023-03-02T03:01:02.455Z,101601.03
2023-03-02T03:03:31.811Z,101602.84
2023-03-02T03:06:03.176Z,101598.47
2023-03-02T03:08:52.113Z,101594.06
2023-03-02T03:11:44.612Z,101577.41
2023-03-02T03:14:15.878Z,101583.66
2023-03-02T03:16:47.520Z,101583.88
2023-03-02T03:19:19.694Z,101582.97
2023-03-02T03:21:49.777Z,101572.28
2023-03-02T03:24:18.630Z,101569.69
2023-03-02T03:26:47.687Z,101578.88
2023-03-02T03:29:17.853Z,101574.53
2023-03-02T03:31:47.543Z,101572.69
2023-03-02T03:34:15.969Z,101574.63
2023-03-02T03:36:44.710Z,101579.97
2023-03-02T03:39:13.742Z,101569.28
2023-03-02T03:41:42.142Z,101573.75
2023-03-02T03:44:11.323Z,101574.63
2023-03-02T03:46:43.372Z,101570.22
2023-03-02T03:49:11.854Z,101565.59
2023-03-02T03:51:40.211Z,101569.06
2023-03-02T03:54:09.848Z,101567.97
2023-03-02T03:56:42.039Z,101575.25
2023-03-02T03:59:12.473Z,101566.50
2023-03-02T04:01:48.474Z,101574.69
2023-03-02T04:04:18.487Z,101571.38
2023-03-02T04:06:51.592Z,101573.47
2023-03-02T04:09:20.663Z,101569.66
2023-03-02T04:11:52.237Z,101578.63
2023-03-02T04:14:21.781Z,101569.00
2023-03-02T04:16:52.421Z,101566.44
2023-03-02T04:19:22.548Z,101565.75
2023-03-02T04:21:55.063Z,101565.88
2023-03-02T04:24:25.019Z,101556.31
2023-03-02T04:26:56.210Z,101559.28
2023-03-02T04:29:24.549Z,101560.25
2023-03-02T04:31:54.821Z,101553.38
2023-03-02T04:34:25.624Z,101562.38
2023-03-02T04:36:54.853Z,101558.19
2023-03-02T04:39:23.211Z,101554.53
2023-03-02T04:41:53.387Z,101558.81
2023-03-02T04:44:21.821Z,101553.47
2023-03-02T04:46:50.228Z,101558.81
2023-03-02T04:49:20.496Z,101553.47
2023-03-02T04:51:49.529Z,101548.34
2023-03-02T04:54:20.605Z,101550.81
2023-03-02T04:56:49.682Z,101551.75
2023-03-02T04:59:18.385Z,101551.97
2023-03-02T05:01:46.580Z,101550.44
2023-03-02T05:04:14.865Z,101553.03
2023-03-02T05:06:44.568Z,101556.56
2023-03-02T05:09:12.963Z,101553.88
2023-03-02T05:11:41.465Z,101556.66
2023-03-02T05:14:11.229Z,101552.34
2023-03-02T05:16:40.352Z,101552.56
2023-03-02T05:19:09.518Z,101556.88
2023-03-02T05:21:37.696Z,101552.56
2023-03-02T05:24:07.558Z,101547.41
2023-03-02T05:26:35.822Z,101549.31
2023-03-02T05:29:04.350Z,101549.50
2023-03-02T05:31:35.465Z,101551.34
2023-03-02T05:34:04.271Z,101542.75
2023-03-02T05:36:32.685Z,101536.16
2023-03-02T05:39:01.028Z,101534.63
2023-03-02T05:41:31.020Z,101544.94
2023-03-02T05:43:59.270Z,101538.84
2023-03-02T05:46:27.548Z,101544.41
2023-03-02T05:48:55.814Z,101536.59
2023-03-02T05:51:24.206Z,101530.75
2023-03-02T05:53:52.370Z,101534.47
2023-03-02T05:56:22.582Z,101529.31
2023-03-02T05:58:52.469Z,101527.78
2023-03-02T06:01:20.865Z,101530.16
2023-03-02T06:03:49.255Z,101525.97
2023-03-02T06:06:17.647Z,101528.63
2023-03-02T06:08:45.925Z,101530.34
2023-03-02T06:11:14.505Z,101526.84
2023-03-02T06:13:42.599Z,101532.00
2023-03-02T06:16:12.280Z,101531.88
2023-03-02T06:18:41.586Z,101542.28
2023-03-02T06:21:10.022Z,101538.78
2023-03-02T06:23:38.141Z,101546.50
2023-03-02T06:26:08.699Z,101546.50
2023-03-02T06:28:49.637Z,101541.75
2023-03-02T06:31:21.297Z,101547.53
2023-03-02T06:33:49.481Z,101546.50
2023-03-02T06:36:18.357Z,101548.03
2023-03-02T06:38:46.693Z,101548.78
2023-03-02T06:41:15.086Z,101550.50
2023-03-02T06:43:43.434Z,101545.94
2023-03-02T06:46:11.616Z,101545.94
2023-03-02T06:48:41.239Z,101548.88
2023-03-02T06:51:09.552Z,101552.63
2023-03-02T06:53:37.561Z,101550.31
2023-03-02T06:56:06.510Z,101545.25
2023-03-02T06:58:34.634Z,101544.56
2023-03-02T07:01:02.838Z,101552.97
2023-03-02T07:03:31.055Z,101545.16
2023-03-02T07:06:00.736Z,101549.56
2023-03-02T07:08:29.179Z,101555.66
2023-03-02T07:10:57.300Z,101561.78
2023-03-02T07:13:25.404Z,101572.28
2023-03-02T07:15:55.002Z,101573.91
2023-03-02T07:18:23.395Z,101570.16
2023-03-02T07:20:51.754Z,101579.72
2023-03-02T07:23:21.903Z,101583.16
2023-03-02T07:25:49.944Z,101587.53
2023-03-02T07:28:17.972Z,101586.59
2023-03-02T07:30:46.025Z,101589.06
2023-03-02T07:33:14.356Z,101583.81
2023-03-02T07:35:42.554Z,101590.59
2023-03-02T07:38:10.682Z,101590.59
2023-03-02T07:40:42.875Z,101590.41
2023-03-02T07:43:11.046Z,101588.59
2023-03-02T07:45:39.756Z,101597.28
2023-03-02T07:48:08.014Z,101602.63
2023-03-02T07:50:36.055Z,101602.44
2023-03-02T07:53:04.057Z,101603.00
2023-03-02T07:55:32.090Z,101610.00
2023-03-02T07:58:01.905Z,101599.19
2023-03-02T08:00:30.348Z,101601.66
2023-03-02T08:02:58.590Z,101608.66
2023-03-02T08:05:26.699Z,101611.88
2023-03-02T08:07:54.708Z,101617.31
2023-03-02T08:10:23.135Z,101615.63
2023-03-02T08:12:51.524Z,101622.88
2023-03-02T08:15:21.284Z,101623.66
2023-03-02T08:17:49.558Z,101625.25
2023-03-02T08:20:17.686Z,101627.66
2023-03-02T08:22:45.915Z,101621.81
2023-03-02T08:25:14.056Z,101624.09
2023-03-02T08:27:42.128Z,101633.66
2023-03-02T08:30:12.654Z,101630.13
2023-03-02T08:32:42.250Z,101638.88
2023-03-02T08:35:10.777Z,101629.72
2023-03-02T08:37:38.909Z,101631.25
2023-03-02T08:40:07.636Z,101632.78
2023-03-02T08:42:35.701Z,101633.34
2023-03-02T08:45:04.029Z,101634.94
2023-03-02T08:47:32.615Z,101632.44
2023-03-02T08:50:02.129Z,101637.97
2023-03-02T08:52:30.617Z,101632.16
2023-03-02T08:54:58.875Z,101629.06
2023-03-02T08:57:26.945Z,101636.16
2023-03-02T08:59:55.078Z,101636.69
2023-03-02T09:02:23.185Z,101644.03
2023-03-02T09:04:51.638Z,101639.31
2023-03-02T09:07:21.416Z,101642.66
2023-03-02T09:09:49.525Z,101645.97
2023-03-02T09:12:17.506Z,101642.25
2023-03-02T09:14:45.757Z,101643.88
2023-03-02T09:17:15.714Z,101646.34
2023-03-02T09:19:44.673Z,101641.69
2023-03-02T09:22:12.853Z,101650.03
2023-03-02T09:24:42.754Z,101640.22
2023-03-02T09:27:13.258Z,101635.25
2023-03-02T09:29:41.424Z,101638.19
2023-03-02T09:32:09.746Z,101639.59
2023-03-02T09:34:37.957Z,101639.59
2023-03-02T09:37:05.985Z,101637.00
2023-03-02T09:39:34.079Z,101637.22
2023-03-02T09:42:11.011Z,101638.94
2023-03-02T09:44:45.581Z,101625.91
2023-03-02T09:47:34.649Z,101630.44
2023-03-02T09:50:07.157Z,101622.16
2023-03-02T09:52:38.006Z,101621.03
2023-03-02T09:55:13.624Z,101616.94
2023-03-02T09:57:44.302Z,101615.00
2023-03-02T10:00:19.419Z,101616.88
2023-03-02T10:02:49.561Z,101607.16
2023-03-02T10:05:19.266Z,101612.47
2023-03-02T10:07:48.936Z,101598.47
2023-03-02T10:10:25.272Z,101595.78
2023-03-02T10:13:01.228Z,101592.63
2023-03-02T10:15:32.896Z,101584.97
2023-03-02T10:18:02.392Z,101588.78
2023-03-02T10:20:34.579Z,101580.06
2023-03-02T10:23:09.737Z,101583.66
2023-03-02T10:25:40.836Z,101577.44
2023-03-02T10:28:15.123Z,101563.41
2023-03-02T10:30:43.656Z,101566.34
2023-03-02T10:33:15.040Z,101566.09
2023-03-02T10:35:46.557Z,101563.41
2023-03-02T10:38:16.249Z,101550.69
2023-03-02T10:40:46.936Z,101556.72
2023-03-02T10:43:18.467Z,101558.38
2023-03-02T10:45:46.777Z,101544.56
2023-03-02T10:48:15.661Z,101539.56
2023-03-02T10:50:45.458Z,101534.56
2023-03-02T10:53:20.571Z,101528.84
2023-03-02T10:55:50.295Z,101536.69
2023-03-02T10:58:23.949Z,101530.13
2023-03-02T11:00:59.204Z,101529.06
2023-03-02T11:03:27.662Z,101525.22
2023-03-02T11:05:56.105Z,101523.50
2023-03-02T11:08:25.072Z,101515.66
2023-03-02T11:10:56.895Z,101515.69
2023-03-02T11:13:31.110Z,101518.59
2023-03-02T11:16:00.813Z,101518.78
2023-03-02T11:18:31.347Z,101511.22
2023-03-02T11:21:01.219Z,101509.25
2023-03-02T11:23:34.405Z,101509.88
2023-03-02T11:26:06.400Z,101517.53
2023-03-02T11:28:39.415Z,101502.31
2023-03-02T11:31:11.805Z,101509.41
2023-03-02T11:33:43.818Z,101512.69
2023-03-02T11:36:15.817Z,101504.16
2023-03-02T11:38:48.584Z,101500.03
2023-03-02T11:41:24.764Z,101497.88
2023-03-02T11:43:55.473Z,101501.16
2023-03-02T11:46:26.526Z,101501.63
2023-03-02T11:48:57.472Z,101500.59
2023-03-02T11:51:27.789Z,101502.59
2023-03-02T11:53:59.563Z,101497.69
2023-03-02T11:56:31.438Z,101507.13
2023-03-02T11:59:04.761Z,101505.03
2023-03-02T12:01:35.377Z,101514.69
2023-03-02T12:04:11.550Z,101506.72
2023-03-02T12:06:41.081Z,101506.13
2023-03-02T12:09:12.082Z,101501.69
2023-03-02T12:11:41.156Z,101504.09
2023-03-02T12:14:24.249Z,101516.81
2023-03-02T12:17:04.567Z,101502.72
2023-03-02T12:19:41.289Z,101503.84
2023-03-02T12:22:12.565Z,101501.09
2023-03-02T12:24:42.202Z,101502.53
2023-03-02T12:27:25.803Z,101504.84
2023-03-02T12:29:58.143Z,101507.25
2023-03-02T12:32:31.203Z,101500.47
2023-03-02T12:35:01.553Z,101493.63
2023-03-02T12:37:31.840Z,101497.69
2023-03-02T12:40:13.201Z,101503.38
2023-03-02T12:42:56.096Z,101498.53
2023-03-02T12:45:33.422Z,101502.47
2023-03-02T12:48:05.311Z,101500.78
2023-03-02T12:50:35.139Z,101499.09
2023-03-02T12:53:04.922Z,101494.56
2023-03-02T12:55:34.545Z,101483.19
2023-03-02T12:58:03.505Z,101493.47
2023-03-02T13:00:32.890Z,101486.91
2023-03-02T13:03:02.490Z,101485.66
2023-03-02T13:05:33.200Z,101488.69
2023-03-02T13:08:02.794Z,101486.16
2023-03-02T13:10:32.417Z,101479.59
2023-03-02T13:13:01.825Z,101478.88
2023-03-02T13:15:30.125Z,101480.16
2023-03-02T13:18:00.098Z,101470.50
2023-03-02T13:20:30.693Z,101470.50
2023-03-02T13:23:00.241Z,101469.34
2023-03-02T13:25:29.053Z,101469.88
2023-03-02T13:27:58.055Z,101464.53
2023-03-02T13:30:28.579Z,101466.94
2023-03-02T13:33:00.979Z,101458.38
2023-03-02T13:35:30.580Z,101457.34
2023-03-02T13:38:16.290Z,101454.94
2023-03-02T13:40:49.827Z,101453.47
2023-03-02T13:43:22.108Z,101457.69
2023-03-02T13:45:53.798Z,101461.03
2023-03-02T13:48:22.223Z,101454.19
2023-03-02T13:50:54.813Z,101450.97
2023-03-02T13:53:25.492Z,101457.69
2023-03-02T13:55:54.529Z,101454.09
2023-03-02T13:58:24.797Z,101448.44
2023-03-02T14:00:53.758Z,101455.53
2023-03-02T14:03:23.955Z,101451.13
2023-03-02T14:05:52.237Z,101446.47
2023-03-02T14:08:20.468Z,101455.00
2023-03-02T14:10:51.990Z,101445.97
2023-03-02T14:13:22.410Z,101451.88
2023-03-02T14:15:51.788Z,101451.09
2023-03-02T14:18:29.320Z,101453.66
2023-03-02T14:20:58.157Z,101452.50
2023-03-02T14:23:26.851Z,101449.53
2023-03-02T14:25:57.394Z,101447.56
2023-03-02T14:28:27.427Z,101461.88
2023-03-02T14:30:57.358Z,101449.59
2023-03-02T14:33:28.035Z,101458.16
2023-03-02T14:36:00.058Z,101458.44
2023-03-02T14:38:30.649Z,101453.56
2023-03-02T14:41:01.590Z,101458.31
2023-03-02T14:43:33.562Z,101450.88
2023-03-02T14:46:02.351Z,101454.25
2023-03-02T14:48:31.240Z,101452.31
2023-03-02T14:51:02.825Z,101455.72
2023-03-02T14:53:33.656Z,101444.22
2023-03-02T14:56:03.966Z,101456.88
2023-03-02T14:58:36.042Z,101451.34
2023-03-02T15:01:07.851Z,101450.38
2023-03-02T15:03:37.465Z,101457.75
2023-03-02T15:06:06.359Z,101452.31
2023-03-02T15:08:34.775Z,101450.03
2023-03-02T15:11:10.833Z,101443.16
2023-03-02T15:13:40.434Z,101440.72
2023-03-02T15:16:11.347Z,101437.44
2023-03-02T15:18:40.351Z,101448.88
2023-03-02T15:21:08.925Z,101449.03
2023-03-02T15:23:37.369Z,101444.34
2023-03-02T15:26:07.142Z,101447.31
2023-03-02T15:28:36.436Z,101438.25
2023-03-02T15:31:08.188Z,101441.63
2023-03-02T15:33:36.855Z,101442.34
2023-03-02T15:36:06.564Z,101443.50
2023-03-02T15:38:36.071Z,101439.66
2023-03-02T15:41:11.861Z,101438.16
2023-03-02T15:43:40.430Z,101430.16
2023-03-02T15:46:10.564Z,101422.06
2023-03-02T15:48:39.417Z,101431.13
2023-03-02T15:51:08.422Z,101439.22
2023-03-02T15:53:38.508Z,101429.69
2023-03-02T15:56:09.837Z,101417.53
2023-03-02T15:58:38.818Z,101425.34
2023-03-02T16:01:11.545Z,101429.53
2023-03-02T16:03:42.200Z,101427.97
2023-03-02T16:06:10.692Z,101425.94
2023-03-02T16:08:39.090Z,101433.22
2023-03-02T16:11:12.011Z,101429.34
2023-03-02T16:13:40.490Z,101434.47
2023-03-02T16:16:09.013Z,101433.13
2023-03-02T16:18:37.202Z,101444.88
2023-03-02T16:21:05.551Z,101436.53
2023-03-02T16:23:34.016Z,101443.16
2023-03-02T16:26:09.901Z,101446.13
2023-03-02T16:28:38.515Z,101438.53
2023-03-02T16:31:07.342Z,101442.94
2023-03-02T16:33:36.470Z,101446.06
2023-03-02T16:36:05.015Z,101447.78
2023-03-02T16:38:33.603Z,101442.41
2023-03-02T16:41:03.508Z,101445.22
2023-03-02T16:43:34.152Z,101441.72
2023-03-02T16:46:02.666Z,101440.72
2023-03-02T16:48:31.201Z,101438.66
2023-03-02T16:51:00.324Z,101447.84
2023-03-02T16:53:28.643Z,101451.38
2023-03-02T16:55:57.646Z,101447.00
2023-03-02T16:58:26.269Z,101439.50
2023-03-02T17:00:57.040Z,101445.63
2023-03-02T17:03:25.346Z,101451.72
2023-03-02T17:05:53.667Z,101451.63
2023-03-02T17:08:22.292Z,101454.06
2023-03-02T17:10:50.837Z,101455.06
2023-03-02T17:13:19.627Z,101463.28
2023-03-02T17:15:48.116Z,101459.84
2023-03-02T17:18:17.928Z,101465.88
2023-03-02T17:20:45.993Z,101468.47
2023-03-02T17:23:15.548Z,101474.25
2023-03-02T17:25:47.468Z,101473.19
2023-03-02T17:28:21.797Z,101476.34
2023-03-02T17:30:54.629Z,101473.53
2023-03-02T17:33:24.539Z,101485.63
2023-03-02T17:35:52.837Z,101487.34
2023-03-02T17:38:24.519Z,101491.25
2023-03-02T17:40:53.420Z,101493.22
2023-03-02T17:43:23.751Z,101498.34
2023-03-02T17:45:55.659Z,101501.41
2023-03-02T17:48:27.081Z,101505.19
2023-03-02T17:50:55.311Z,101504.47
2023-03-02T17:53:26.972Z,101510.06
2023-03-02T17:55:55.230Z,101512.28
2023-03-02T17:58:25.255Z,101514.47
2023-03-02T18:00:57.205Z,101519.81
2023-03-02T18:03:28.204Z,101519.69
2023-03-02T18:05:57.363Z,101523.72
2023-03-02T18:08:28.714Z,101528.84
2023-03-02T18:11:01.182Z,101529.81
2023-03-02T18:13:29.570Z,101537.88
2023-03-02T18:16:00.264Z,101533.41
2023-03-02T18:18:30.757Z,101545.66
2023-03-02T18:21:01.003Z,101543.94
2023-03-02T18:23:31.039Z,101539.78
2023-03-02T18:26:01.225Z,101553.22
2023-03-02T18:28:29.299Z,101558.59
2023-03-02T18:31:02.339Z,101564.81
2023-03-02T18:33:33.407Z,101559.44
2023-03-02T18:36:05.822Z,101574.44
2023-03-02T18:38:35.382Z,101572.59
2023-03-02T18:41:04.523Z,101577.34
2023-03-02T18:43:35.962Z,101585.34
2023-03-02T18:46:05.372Z,101578.88
2023-03-02T18:48:38.352Z,101580.38
2023-03-02T18:51:09.524Z,101577.53
2023-03-02T18:53:46.789Z,101585.03
2023-03-02T18:56:16.635Z,101587.72
2023-03-02T18:58:47.125Z,101587.19
2023-03-02T19:01:16.107Z,101593.53
2023-03-02T19:03:47.062Z,101592.66
2023-03-02T19:06:18.277Z,101591.16
2023-03-02T19:08:46.296Z,101597.41
2023-03-02T19:11:14.475Z,101607.28
2023-03-02T19:13:42.529Z,101601.06
2023-03-02T19:16:10.732Z,101605.59
2023-03-02T19:18:40.860Z,101603.88
2023-03-02T19:21:11.656Z,101608.38
2023-03-02T19:23:41.009Z,101609.34
2023-03-02T19:26:13.620Z,101609.69
2023-03-02T19:28:46.999Z,101604.31
2023-03-02T19:31:16.771Z,101618.72
2023-03-02T19:33:48.664Z,101628.69
2023-03-02T19:36:19.934Z,101624.41
2023-03-02T19:38:48.305Z,101636.09
2023-03-02T19:41:22.548Z,101623.34
2023-03-02T19:43:52.477Z,101629.03
2023-03-02T19:46:25.075Z,101623.66
2023-03-02T19:48:54.595Z,101626.44
2023-03-02T19:51:28.094Z,101634.63
2023-03-02T19:53:58.024Z,101636.75
2023-03-02T19:56:33.202Z,101641.06
2023-03-02T19:59:01.661Z,101637.53
2023-03-02T20:01:30.848Z,101635.06
2023-03-02T20:04:00.142Z,101638.59
2023-03-02T20:06:32.119Z,101632.50
2023-03-02T20:09:01.648Z,101635.78
2023-03-02T20:11:30.920Z,101638.72
2023-03-02T20:14:02.291Z,101636.25
2023-03-02T20:16:30.652Z,101642.47
2023-03-02T20:19:00.838Z,101640.66
2023-03-02T20:21:30.377Z,101641.63
2023-03-02T20:23:58.660Z,101643.53
2023-03-02T20:26:27.091Z,101650.72
2023-03-02T20:28:56.662Z,101643.63
2023-03-02T20:31:25.870Z,101647.41
2023-03-02T20:33:54.879Z,101649.22
2023-03-02T20:36:26.132Z,101648.38
2023-03-02T20:38:59.432Z,101652.25
2023-03-02T20:41:28.678Z,101650.06
2023-03-02T20:44:00.377Z,101652.88
2023-03-02T20:46:30.282Z,101652.34
2023-03-02T20:49:00.212Z,101665.88
2023-03-02T20:51:29.693Z,101659.97
2023-03-02T20:53:59.323Z,101661.03
2023-03-02T20:56:29.264Z,101665.56
2023-03-02T20:58:58.198Z,101655.56
2023-03-02T21:01:31.347Z,101654.81
2023-03-02T21:04:01.021Z,101663.22
2023-03-02T21:06:33.486Z,101668.69
2023-03-02T21:09:04.823Z,101673.38
2023-03-02T21:11:34.752Z,101667.16
2023-03-02T21:14:04.121Z,101674.44
2023-03-02T21:16:37.151Z,101682.94
2023-03-02T21:19:05.755Z,101681.97
2023-03-02T21:21:41.433Z,101678.41
2023-03-02T21:24:12.415Z,101675.22
2023-03-02T21:26:41.659Z,101681.31
2023-03-02T21:29:11.806Z,101684.00
2023-03-02T21:31:40.028Z,101687.09
2023-03-02T21:34:08.378Z,101692.25
2023-03-02T21:36:37.037Z,101692.38
2023-03-02T21:39:06.835Z,101691.59
2023-03-02T21:41:36.864Z,101694.28
2023-03-02T21:44:06.172Z,101694.28
2023-03-02T21:46:35.544Z,101703.41
2023-03-02T21:49:03.698Z,101698.69
2023-03-02T21:51:31.974Z,101703.31
2023-03-02T21:54:00.782Z,101709.50
2023-03-02T21:56:29.507Z,101704.47
2023-03-02T21:58:59.089Z,101710.56
2023-03-02T22:01:27.534Z,101705.09
2023-03-02T22:03:55.649Z,101706.59
2023-03-02T22:06:24.678Z,101704.78
2023-03-02T22:08:53.152Z,101705.84
2023-03-02T22:11:22.812Z,101704.03
2023-03-02T22:13:52.337Z,101699.53
2023-03-02T22:16:23.237Z,101707.59
2023-03-02T22:18:55.147Z,101700.50
2023-03-02T22:21:30.044Z,101709.91
2023-03-02T22:24:01.657Z,101709.91
2023-03-02T22:26:29.825Z,101706.28
2023-03-02T22:29:03.952Z,101710.66
2023-03-02T22:31:33.660Z,101704.75
2023-03-02T22:34:01.836Z,101707.97
2023-03-02T22:36:30.178Z,101705.50
2023-03-02T22:39:01.931Z,101710.66
2023-03-02T22:41:30.077Z,101707.97
2023-03-02T22:43:58.701Z,101710.44
2023-03-02T22:46:27.241Z,101716.00
2023-03-02T22:48:56.851Z,101721.47
2023-03-02T22:51:25.704Z,101722.66
2023-03-02T22:53:55.251Z,101724.47
2023-03-02T22:56:33.145Z,101725.63
2023-03-02T22:59:04.282Z,101718.44
2023-03-02T23:01:40.108Z,101717.59
2023-03-02T23:04:17.379Z,101726.59
2023-03-02T23:06:47.758Z,101723.16
2023-03-02T23:09:18.500Z,101724.69
2023-03-02T23:11:47.418Z,101726.38
2023-03-02T23:14:20.371Z,101726.22
2023-03-02T23:16:50.343Z,101726.22
2023-03-02T23:19:20.033Z,101721.59
2023-03-02T23:21:49.445Z,101729.63
2023-03-02T23:24:20.444Z,101730.69
2023-03-02T23:26:50.585Z,101727.91
2023-03-02T23:29:20.428Z,101734.25
2023-03-02T23:31:50.330Z,101731.56
2023-03-02T23:34:21.354Z,101741.81
2023-03-02T23:36:51.622Z,101742.47
2023-03-02T23:39:23.672Z,101736.25
2023-03-02T23:41:55.459Z,101739.88
2023-03-02T23:44:24.960Z,101743.75
2023-03-02T23:46:53.409Z,101748.03
2023-03-02T23:49:22.857Z,101743.75
2023-03-02T23:51:50.920Z,101748.25
2023-03-02T23:54:19.026Z,101748.25
2023-03-02T23:56:47.408Z,101747.41
2023-03-02T23:59:15.790Z,101755.75
